Time;durP1;ratioP1;P1;durP2;ratioP2;P2;SDS_P1;SDS_P2;PMS_P1;PMS_P2;Temp;Humidity;BMP_temperature;BMP_pressure;BME280_temperature;BME280_humidity;BME280_pressure;Samples;Min_cycle;Max_cycle;Signal;HPM_P1;HPM_P2
2022/06/18 00:00:22;;;;;;;308.98;200.73;;;;;;;;;;4995986;28;20227;-49
2022/06/18 00:02:48;;;;;;;309.45;209.23;;;;;;;;;;4999496;28;20189;-49
2022/06/18 00:05:15;;;;;;;295.92;203.27;;;;;;;;;;4996995;28;20674;-49
2022/06/18 00:07:43;;;;;;;297.80;198.80;;;;;;;;;;4994018;28;20679;-49
2022/06/18 00:10:12;;;;;;;288.02;188.63;;;;;;;;;;4996342;28;20292;-49
2022/06/18 00:15:24;;;;;;;274.23;181.23;;;;;;;;;;4997363;28;20275;-49
2022/06/18 00:17:50;;;;;;;254.95;179.15;;;;;;;;;;5000309;28;20470;-49
2022/06/18 00:20:18;;;;;;;262.92;184.73;;;;;;;;;;4995870;28;20217;-49
2022/06/18 00:22:46;;;;;;;266.17;181.23;;;;;;;;;;4998090;28;20821;-49
2022/06/18 00:25:17;;;;;;;309.50;200.38;;;;;;;;;;4999157;28;20881;-49
2022/06/18 00:27:43;;;;;;;288.85;192.85;;;;;;;;;;4998929;28;20217;-49
2022/06/18 00:30:13;;;;;;;289.13;192.27;;;;;;;;;;4997051;28;20229;-49
2022/06/18 00:32:39;;;;;;;271.13;185.30;;;;;;;;;;4998391;28;20204;-49
2022/06/18 00:35:06;;;;;;;304.85;200.27;;;;;;;;;;4995494;28;20189;-49
2022/06/18 00:37:32;;;;;;;279.70;186.65;;;;;;;;;;4997702;28;20211;-49
2022/06/18 00:39:58;;;;;;;276.23;181.10;;;;;;;;;;4998429;28;20213;-49
2022/06/18 00:42:29;;;;;;;282.02;183.85;;;;;;;;;;5001710;28;20260;-49
2022/06/18 00:44:57;;;;;;;261.23;178.30;;;;;;;;;;4997790;28;20545;-49
2022/06/18 00:47:37;;;;;;;288.73;185.60;;;;;;;;;;5001445;28;20658;-49
2022/06/18 00:50:24;;;;;;;281.10;185.32;;;;;;;;;;4999277;28;20346;-49
2022/06/18 00:53:01;;;;;;;272.17;176.07;;;;;;;;;;5002139;28;20296;-49
2022/06/18 00:55:32;;;;;;;265.52;176.00;;;;;;;;;;4997285;28;20209;-49
2022/06/18 00:58:01;;;;;;;261.50;175.18;;;;;;;;;;5000797;28;20304;-49
2022/06/18 01:00:39;;;;;;;277.40;181.88;;;;;;;;;;4995669;28;20316;-49
2022/06/18 01:03:05;;;;;;;267.33;176.10;;;;;;;;;;5004062;28;20216;-49
2022/06/18 01:05:37;;;;;;;267.88;178.43;;;;;;;;;;4999420;28;20267;-49
2022/06/18 01:08:05;;;;;;;274.23;182.55;;;;;;;;;;5005311;28;20315;-49
2022/06/18 01:10:34;;;;;;;260.67;175.82;;;;;;;;;;4998728;28;20575;-49
2022/06/18 01:13:02;;;;;;;274.73;183.90;;;;;;;;;;4999548;28;20622;-49
2022/06/18 01:15:29;;;;;;;260.75;182.63;;;;;;;;;;5005395;28;20580;-49
2022/06/18 01:17:56;;;;;;;258.05;178.30;;;;;;;;;;5002005;28;20225;-49
2022/06/18 01:20:23;;;;;;;258.80;174.80;;;;;;;;;;4996383;28;20205;-49
2022/06/18 01:22:58;;;;;;;273.35;181.18;;;;;;;;;;5001750;28;20208;-49
2022/06/18 01:25:26;;;;;;;257.88;176.38;;;;;;;;;;4996797;28;21197;-49
2022/06/18 01:27:53;;;;;;;265.05;189.15;;;;;;;;;;4999048;28;20220;-49
2022/06/18 01:30:23;;;;;;;258.98;178.32;;;;;;;;;;5003979;28;20212;-49
2022/06/18 01:32:51;;;;;;;246.10;173.13;;;;;;;;;;5005509;28;20241;-49
2022/06/18 01:35:17;;;;;;;279.48;184.13;;;;;;;;;;4999707;28;20316;-49
2022/06/18 01:37:43;;;;;;;267.13;183.15;;;;;;;;;;5002386;28;20240;-49
2022/06/18 01:40:12;;;;;;;258.58;180.00;;;;;;;;;;4999875;28;20205;-49
2022/06/18 01:42:40;;;;;;;252.65;175.25;;;;;;;;;;5000391;28;20212;-49
2022/06/18 01:45:10;;;;;;;247.38;174.52;;;;;;;;;;4999251;28;20220;-49
2022/06/18 01:47:41;;;;;;;255.40;169.30;;;;;;;;;;5004933;28;20198;-49
2022/06/18 01:50:13;;;;;;;261.02;174.32;;;;;;;;;;4999837;28;20229;-49
2022/06/18 01:52:44;;;;;;;243.98;167.48;;;;;;;;;;4996180;28;20209;-49
2022/06/18 01:55:30;;;;;;;241.35;162.80;;;;;;;;;;5000736;28;20740;-49
2022/06/18 01:57:59;;;;;;;252.13;169.73;;;;;;;;;;4998592;28;20300;-49
2022/06/18 02:00:26;;;;;;;230.18;161.73;;;;;;;;;;4995033;28;20335;-49
2022/06/18 02:02:52;;;;;;;236.68;167.65;;;;;;;;;;4997109;28;20693;-49
2022/06/18 02:05:19;;;;;;;242.30;170.68;;;;;;;;;;5002146;28;20237;-49
2022/06/18 02:07:46;;;;;;;255.52;177.77;;;;;;;;;;5004864;28;20217;-49
2022/06/18 02:10:20;;;;;;;250.48;175.02;;;;;;;;;;4999607;28;20213;-49
2022/06/18 02:12:47;;;;;;;240.80;171.70;;;;;;;;;;4998323;28;20213;-49
2022/06/18 02:15:15;;;;;;;251.85;172.98;;;;;;;;;;4998913;28;20707;-49
2022/06/18 02:17:42;;;;;;;272.30;176.30;;;;;;;;;;4999374;28;20173;-49
2022/06/18 02:20:08;;;;;;;243.52;169.52;;;;;;;;;;4999374;28;20930;-49
2022/06/18 02:22:41;;;;;;;238.60;162.18;;;;;;;;;;4998393;28;20213;-49
2022/06/18 02:25:07;;;;;;;245.00;160.45;;;;;;;;;;4997393;28;20215;-49
2022/06/18 02:27:33;;;;;;;232.40;157.25;;;;;;;;;;5000437;28;20629;-49
2022/06/18 02:29:59;;;;;;;242.73;158.48;;;;;;;;;;4999726;28;20685;-49
2022/06/18 02:32:29;;;;;;;243.43;162.20;;;;;;;;;;4988051;28;20198;-49
2022/06/18 02:34:55;;;;;;;233.02;155.05;;;;;;;;;;4983333;28;20205;-49
2022/06/18 02:37:23;;;;;;;229.10;152.60;;;;;;;;;;5003371;28;20259;-49
2022/06/18 02:40:00;;;;;;;261.83;167.02;;;;;;;;;;4998918;28;20220;-49
2022/06/18 02:42:27;;;;;;;235.30;153.85;;;;;;;;;;5000839;28;20478;-49
2022/06/18 02:44:53;;;;;;;242.82;159.18;;;;;;;;;;4998476;28;20205;-49
2022/06/18 02:47:21;;;;;;;260.10;162.57;;;;;;;;;;4997454;28;20232;-49
2022/06/18 02:49:51;;;;;;;236.90;160.15;;;;;;;;;;4996424;28;20814;-49
2022/06/18 02:52:17;;;;;;;250.90;160.80;;;;;;;;;;4995129;28;20563;-49
2022/06/18 02:54:43;;;;;;;230.45;157.85;;;;;;;;;;4997004;28;20209;-49
2022/06/18 02:57:15;;;;;;;254.73;163.20;;;;;;;;;;4999871;28;20229;-49
2022/06/18 02:59:41;;;;;;;261.05;169.70;;;;;;;;;;4995771;28;20682;-49
2022/06/18 03:02:07;;;;;;;239.65;163.13;;;;;;;;;;4995372;28;20237;-49
2022/06/18 03:04:33;;;;;;;243.05;166.20;;;;;;;;;;4997179;28;20287;-49
2022/06/18 03:06:59;;;;;;;242.98;162.40;;;;;;;;;;4994592;28;20213;-49
2022/06/18 03:09:25;;;;;;;272.02;165.73;;;;;;;;;;4995658;28;20205;-49
2022/06/18 03:12:07;;;;;;;214.20;152.05;;;;;;;;;;4995930;28;20189;-49
2022/06/18 03:14:33;;;;;;;269.30;168.68;;;;;;;;;;4996850;28;20169;-49
2022/06/18 03:16:59;;;;;;;201.13;139.90;;;;;;;;;;4996422;28;20228;-49
2022/06/18 03:19:31;;;;;;;196.63;137.38;;;;;;;;;;5003672;28;20224;-49
2022/06/18 03:22:00;;;;;;;194.85;138.50;;;;;;;;;;4998467;28;20228;-49
2022/06/18 03:24:25;;;;;;;256.50;160.88;;;;;;;;;;4995852;28;20208;-49
2022/06/18 03:26:52;;;;;;;241.70;152.52;;;;;;;;;;4998242;28;20177;-49
2022/06/18 03:29:18;;;;;;;217.60;143.70;;;;;;;;;;4995105;28;20204;-48
2022/06/18 03:31:44;;;;;;;225.80;146.65;;;;;;;;;;4997503;28;20209;-49
2022/06/18 03:34:10;;;;;;;228.75;150.40;;;;;;;;;;4982296;28;20209;-49
2022/06/18 03:36:36;;;;;;;247.85;161.60;;;;;;;;;;5000945;28;20205;-49
2022/06/18 03:39:02;;;;;;;233.55;153.82;;;;;;;;;;4998098;28;20371;-49
2022/06/18 03:41:29;;;;;;;257.73;165.63;;;;;;;;;;4995291;28;20208;-49
2022/06/18 03:43:56;;;;;;;215.45;146.77;;;;;;;;;;4997797;28;20219;-49
2022/06/18 03:46:22;;;;;;;230.85;149.02;;;;;;;;;;4997563;28;20256;-49
2022/06/18 03:48:50;;;;;;;258.58;163.57;;;;;;;;;;4999031;28;20302;-49
2022/06/18 03:51:16;;;;;;;253.55;159.82;;;;;;;;;;4995892;28;20231;-49
2022/06/18 03:53:42;;;;;;;253.70;163.65;;;;;;;;;;4997227;28;20264;-49
2022/06/18 03:56:12;;;;;;;234.85;157.75;;;;;;;;;;4996327;28;20216;-49
2022/06/18 03:58:39;;;;;;;213.90;145.68;;;;;;;;;;4998615;28;20244;-49
2022/06/18 04:01:04;;;;;;;262.73;174.73;;;;;;;;;;4997165;28;20286;-49
2022/06/18 04:03:30;;;;;;;244.30;161.68;;;;;;;;;;4999793;28;20693;-49
2022/06/18 04:05:56;;;;;;;245.20;165.65;;;;;;;;;;4995545;28;22834;-49
2022/06/18 04:08:23;;;;;;;252.80;171.18;;;;;;;;;;4991742;28;20204;-49
2022/06/18 04:10:49;;;;;;;248.60;167.77;;;;;;;;;;4995967;28;20236;-49
2022/06/18 04:13:15;;;;;;;260.35;169.80;;;;;;;;;;4998667;28;20217;-49
2022/06/18 04:15:41;;;;;;;237.73;166.10;;;;;;;;;;4996180;28;20319;-49
2022/06/18 04:18:07;;;;;;;240.10;167.27;;;;;;;;;;5000204;28;20301;-48
2022/06/18 04:20:35;;;;;;;250.48;170.20;;;;;;;;;;5002403;28;20557;-49
2022/06/18 04:23:01;;;;;;;246.23;169.77;;;;;;;;;;4999089;28;20216;-49
2022/06/18 04:25:28;;;;;;;243.15;172.23;;;;;;;;;;5003065;28;20217;-49
2022/06/18 04:27:57;;;;;;;237.07;166.05;;;;;;;;;;4996345;28;20256;-49
2022/06/18 04:30:24;;;;;;;248.98;173.93;;;;;;;;;;5002452;28;20254;-49
2022/06/18 04:32:50;;;;;;;262.20;176.10;;;;;;;;;;5001346;28;20197;-49
2022/06/18 04:35:16;;;;;;;257.13;180.32;;;;;;;;;;5000763;28;20234;-49
2022/06/18 04:37:43;;;;;;;247.23;174.60;;;;;;;;;;5001454;28;20259;-49
2022/06/18 04:40:13;;;;;;;251.32;176.85;;;;;;;;;;5003913;28;20213;-49
2022/06/18 04:42:39;;;;;;;243.00;172.48;;;;;;;;;;5005800;28;20209;-49
2022/06/18 04:45:05;;;;;;;275.45;189.93;;;;;;;;;;4999895;28;20270;-49
2022/06/18 04:47:31;;;;;;;259.88;179.27;;;;;;;;;;5006358;28;20188;-48
2022/06/18 04:49:58;;;;;;;238.23;173.07;;;;;;;;;;5004849;28;20209;-49
2022/06/18 04:52:24;;;;;;;254.73;174.70;;;;;;;;;;4998983;28;20205;-49
2022/06/18 04:54:52;;;;;;;220.32;161.95;;;;;;;;;;5003584;28;20209;-49
2022/06/18 04:57:18;;;;;;;276.67;187.18;;;;;;;;;;5004180;28;20244;-49
2022/06/18 04:59:44;;;;;;;244.13;177.48;;;;;;;;;;5000560;28;20201;-49
2022/06/18 05:02:15;;;;;;;263.95;181.82;;;;;;;;;;4997608;28;20220;-49
2022/06/18 05:04:41;;;;;;;263.33;184.32;;;;;;;;;;5005498;28;20240;-49
2022/06/18 05:07:07;;;;;;;260.52;183.70;;;;;;;;;;5002088;28;20290;-49
2022/06/18 05:09:33;;;;;;;244.25;176.60;;;;;;;;;;5007205;28;20673;-51
2022/06/18 05:11:58;;;;;;;239.75;176.07;;;;;;;;;;5012933;28;20220;-51
2022/06/18 05:14:24;;;;;;;224.30;171.35;;;;;;;;;;5013736;28;20223;-51
2022/06/18 05:16:50;;;;;;;233.00;169.70;;;;;;;;;;5012882;28;20685;-51
2022/06/18 05:19:23;;;;;;;258.67;183.07;;;;;;;;;;5012336;28;20212;-51
2022/06/18 05:21:49;;;;;;;245.13;174.55;;;;;;;;;;5003991;28;20232;-51
2022/06/18 05:24:15;;;;;;;242.32;176.00;;;;;;;;;;4994278;28;20220;-51
2022/06/18 05:26:44;;;;;;;243.20;176.02;;;;;;;;;;5010569;28;20260;-51
2022/06/18 05:29:10;;;;;;;265.27;185.27;;;;;;;;;;5003067;28;20257;-51
2022/06/18 05:31:36;;;;;;;244.10;184.65;;;;;;;;;;5005082;28;20212;-51
2022/06/18 05:34:03;;;;;;;252.90;179.25;;;;;;;;;;5012166;28;20633;-51
2022/06/18 05:36:29;;;;;;;248.07;183.75;;;;;;;;;;5010493;28;20711;-51
2022/06/18 05:38:57;;;;;;;254.82;178.10;;;;;;;;;;5011867;28;20201;-51
2022/06/18 05:41:23;;;;;;;253.73;184.07;;;;;;;;;;5012878;28;20259;-51
2022/06/18 05:43:49;;;;;;;253.35;184.85;;;;;;;;;;5010888;28;20413;-50
2022/06/18 05:46:15;;;;;;;261.27;183.10;;;;;;;;;;5012077;28;20213;-51
2022/06/18 05:48:41;;;;;;;242.52;169.70;;;;;;;;;;5011688;28;20251;-51
2022/06/18 05:51:07;;;;;;;266.73;184.27;;;;;;;;;;5012094;28;20213;-51
2022/06/18 05:53:33;;;;;;;251.63;176.77;;;;;;;;;;5002886;28;20174;-51
2022/06/18 05:55:59;;;;;;;265.55;183.15;;;;;;;;;;4992542;28;20221;-51
2022/06/18 05:58:25;;;;;;;249.00;182.80;;;;;;;;;;5009153;28;20220;-51
2022/06/18 06:00:51;;;;;;;261.40;194.20;;;;;;;;;;5010991;28;20216;-51
2022/06/18 06:03:17;;;;;;;263.73;201.48;;;;;;;;;;5010181;28;20227;-51
2022/06/18 06:05:43;;;;;;;276.88;197.55;;;;;;;;;;5012404;28;20561;-51
2022/06/18 06:08:12;;;;;;;259.50;187.40;;;;;;;;;;5011602;28;20299;-51
2022/06/18 06:13:24;;;;;;;282.45;205.82;;;;;;;;;;5011997;28;20216;-51
2022/06/18 06:15:50;;;;;;;280.70;208.48;;;;;;;;;;5011615;28;20212;-51
2022/06/18 06:18:17;;;;;;;285.80;210.50;;;;;;;;;;5011067;28;20239;-51
2022/06/18 06:20:44;;;;;;;280.33;206.40;;;;;;;;;;5011093;28;20259;-51
2022/06/18 06:23:11;;;;;;;278.95;207.98;;;;;;;;;;5011547;28;20169;-51
2022/06/18 06:25:38;;;;;;;298.88;219.35;;;;;;;;;;5011347;28;20208;-51
2022/06/18 06:28:04;;;;;;;302.17;216.23;;;;;;;;;;5011353;28;20308;-51
2022/06/18 06:30:30;;;;;;;302.55;221.35;;;;;;;;;;5010995;28;20224;-50
2022/06/18 06:32:56;;;;;;;293.10;213.85;;;;;;;;;;5004184;28;20737;-51
2022/06/18 06:35:22;;;;;;;290.80;213.70;;;;;;;;;;5011783;28;20207;-51
2022/06/18 06:37:48;;;;;;;293.80;206.50;;;;;;;;;;5010984;28;20240;-49
2022/06/18 06:40:15;;;;;;;283.52;213.43;;;;;;;;;;5011198;28;20244;-49
2022/06/18 06:42:46;;;;;;;302.85;222.13;;;;;;;;;;5010328;28;20209;-49
2022/06/18 06:45:13;;;;;;;286.33;215.20;;;;;;;;;;4993919;28;20209;-49
2022/06/18 06:47:39;;;;;;;314.27;228.00;;;;;;;;;;5011698;28;20173;-49
2022/06/18 06:50:05;;;;;;;293.35;220.85;;;;;;;;;;5011510;28;20620;-49
2022/06/18 06:52:31;;;;;;;295.73;217.60;;;;;;;;;;5011037;28;20213;-49
2022/06/18 06:57:43;;;;;;;303.65;223.02;;;;;;;;;;5011039;28;20219;-49
2022/06/18 07:00:09;;;;;;;301.02;223.85;;;;;;;;;;5011158;28;20211;-49
2022/06/18 07:02:35;;;;;;;320.60;230.88;;;;;;;;;;5011109;28;20196;-49
2022/06/18 07:05:01;;;;;;;296.80;219.77;;;;;;;;;;5011028;28;20212;-49
2022/06/18 07:07:29;;;;;;;307.95;229.65;;;;;;;;;;5010847;28;20219;-50
2022/06/18 07:09:55;;;;;;;305.25;224.43;;;;;;;;;;5010916;28;20208;-49
2022/06/18 07:12:21;;;;;;;400.75;276.27;;;;;;;;;;5005405;28;20309;-52
2022/06/18 07:14:47;;;;;;;392.70;262.52;;;;;;;;;;4984687;28;20817;-52
2022/06/18 07:17:16;;;;;;;375.40;247.13;;;;;;;;;;4989875;28;20188;-51
2022/06/18 07:19:42;;;;;;;288.92;210.65;;;;;;;;;;4992197;28;20217;-50
2022/06/18 07:22:10;;;;;;;311.63;232.88;;;;;;;;;;5010554;28;20837;-51
2022/06/18 07:24:36;;;;;;;324.58;239.05;;;;;;;;;;5010555;28;20219;-50
2022/06/18 07:27:02;;;;;;;324.15;233.73;;;;;;;;;;5011027;28;20216;-50
2022/06/18 07:29:28;;;;;;;318.85;230.35;;;;;;;;;;5011397;28;20202;-50
2022/06/18 07:31:54;;;;;;;296.42;227.15;;;;;;;;;;5010618;28;20212;-50
2022/06/18 07:34:20;;;;;;;320.40;243.30;;;;;;;;;;5010473;28;20212;-50
2022/06/18 07:36:46;;;;;;;317.25;238.13;;;;;;;;;;5010293;28;20220;-50
2022/06/18 07:39:12;;;;;;;328.65;242.82;;;;;;;;;;5010381;28;20220;-50
2022/06/18 07:41:40;;;;;;;312.35;234.80;;;;;;;;;;5010922;28;20197;-50
2022/06/18 07:44:06;;;;;;;310.13;236.13;;;;;;;;;;5010316;28;20682;-51
2022/06/18 07:46:32;;;;;;;318.25;240.15;;;;;;;;;;5010359;28;20338;-51
2022/06/18 07:48:57;;;;;;;331.45;246.05;;;;;;;;;;5010016;28;20217;-51
2022/06/18 07:51:25;;;;;;;332.63;245.15;;;;;;;;;;5009829;28;20209;-51
2022/06/18 07:53:51;;;;;;;334.88;251.13;;;;;;;;;;5015828;28;20175;-51
2022/06/18 07:56:17;;;;;;;323.38;250.45;;;;;;;;;;5017753;28;20169;-51
2022/06/18 07:58:43;;;;;;;324.25;243.65;;;;;;;;;;5017443;28;20224;-51
2022/06/18 08:01:09;;;;;;;342.13;248.02;;;;;;;;;;5016499;28;20223;-51
2022/06/18 08:03:35;;;;;;;321.77;243.15;;;;;;;;;;5017407;28;20696;-51
2022/06/18 08:06:01;;;;;;;331.17;246.07;;;;;;;;;;5017434;28;20239;-51
2022/06/18 08:08:27;;;;;;;330.35;256.63;;;;;;;;;;5017751;28;20189;-51
2022/06/18 08:10:54;;;;;;;344.42;260.33;;;;;;;;;;5017485;28;20287;-51
2022/06/18 08:13:20;;;;;;;326.52;245.23;;;;;;;;;;5017278;28;20209;-51
2022/06/18 08:15:46;;;;;;;335.08;255.00;;;;;;;;;;5017381;28;20216;-51
2022/06/18 08:18:12;;;;;;;331.83;252.75;;;;;;;;;;5016872;28;20294;-51
2022/06/18 08:20:38;;;;;;;354.05;262.58;;;;;;;;;;5016946;28;20246;-51
2022/06/18 08:23:06;;;;;;;336.92;261.08;;;;;;;;;;5017430;28;20191;-51
2022/06/18 08:25:32;;;;;;;339.33;258.23;;;;;;;;;;5017445;28;20236;-51
2022/06/18 08:28:00;;;;;;;379.50;278.85;;;;;;;;;;5014079;28;20307;-51
2022/06/18 08:30:26;;;;;;;315.10;250.60;;;;;;;;;;5017378;28;20217;-51
2022/06/18 08:32:52;;;;;;;348.48;261.70;;;;;;;;;;5017029;28;20193;-51
2022/06/18 08:35:18;;;;;;;343.52;263.38;;;;;;;;;;5016428;28;20308;-51
2022/06/18 08:37:45;;;;;;;326.85;251.98;;;;;;;;;;5011052;28;20373;-51
2022/06/18 08:40:36;;;;;;;348.05;253.02;;;;;;;;;;4996836;28;20581;-51
2022/06/18 08:43:10;;;;;;;344.92;272.17;;;;;;;;;;4996847;28;20578;-51
2022/06/18 08:45:36;;;;;;;323.85;260.92;;;;;;;;;;4996857;28;20720;-51
2022/06/18 08:48:14;;;;;;;348.55;267.15;;;;;;;;;;4996604;28;20217;-51
2022/06/18 08:51:00;;;;;;;369.17;278.90;;;;;;;;;;4996684;28;20216;-51
2022/06/18 08:53:26;;;;;;;350.05;276.63;;;;;;;;;;4997037;28;20182;-51
2022/06/18 08:55:52;;;;;;;352.52;275.00;;;;;;;;;;4996962;28;20797;-51
2022/06/18 08:58:29;;;;;;;346.13;256.25;;;;;;;;;;4979072;28;20232;-51
2022/06/18 09:00:58;;;;;;;348.63;265.45;;;;;;;;;;4996848;28;20228;-51
2022/06/18 09:03:33;;;;;;;332.00;270.40;;;;;;;;;;4996286;28;20206;-51
2022/06/18 09:06:05;;;;;;;359.10;280.17;;;;;;;;;;4993104;28;20213;-52
2022/06/18 09:08:44;;;;;;;352.42;278.35;;;;;;;;;;4994089;28;20198;-52
2022/06/18 09:11:21;;;;;;;353.67;281.60;;;;;;;;;;4994056;28;20554;-52
2022/06/18 09:14:06;;;;;;;367.17;287.77;;;;;;;;;;4993751;28;20209;-51
2022/06/18 09:16:34;;;;;;;357.33;280.63;;;;;;;;;;4993446;28;20217;-51
2022/06/18 09:19:03;;;;;;;348.02;269.95;;;;;;;;;;4993197;28;20589;-51
2022/06/18 09:21:33;;;;;;;361.00;288.95;;;;;;;;;;4992889;28;20237;-52
2022/06/18 09:24:02;;;;;;;352.55;284.50;;;;;;;;;;4993685;28;20224;-52
2022/06/18 09:26:39;;;;;;;365.17;286.85;;;;;;;;;;4994065;28;20170;-52
2022/06/18 09:29:08;;;;;;;346.48;279.80;;;;;;;;;;4994060;28;20240;-51
2022/06/18 09:31:39;;;;;;;337.83;278.13;;;;;;;;;;4976358;28;20213;-52
2022/06/18 09:34:07;;;;;;;353.70;282.17;;;;;;;;;;4993395;28;20228;-51
2022/06/18 09:36:36;;;;;;;333.40;276.38;;;;;;;;;;4993638;28;20228;-51
2022/06/18 09:39:06;;;;;;;333.85;272.42;;;;;;;;;;4993748;28;20225;-51
2022/06/18 09:41:40;;;;;;;348.70;281.20;;;;;;;;;;4994461;28;20224;-52
2022/06/18 09:44:28;;;;;;;348.67;285.40;;;;;;;;;;4993724;28;20569;-52
2022/06/18 09:47:00;;;;;;;349.83;279.10;;;;;;;;;;4975880;28;20694;-51
2022/06/18 09:49:27;;;;;;;355.52;283.00;;;;;;;;;;4993299;28;20217;-52
2022/06/18 09:52:13;;;;;;;350.17;270.42;;;;;;;;;;4993379;28;20224;-52
2022/06/18 09:54:48;;;;;;;329.65;257.48;;;;;;;;;;4993605;28;20214;-52
2022/06/18 09:57:16;;;;;;;353.67;267.98;;;;;;;;;;4993265;28;20738;-51
2022/06/18 09:59:43;;;;;;;351.77;266.10;;;;;;;;;;4993450;28;20211;-52
2022/06/18 10:02:17;;;;;;;351.48;285.77;;;;;;;;;;4993369;28;20213;-52
2022/06/18 10:07:29;;;;;;;352.75;288.85;;;;;;;;;;4993214;28;20279;-52
2022/06/18 10:09:59;;;;;;;362.70;301.67;;;;;;;;;;4993202;28;20264;-52
2022/06/18 10:12:25;;;;;;;362.52;300.13;;;;;;;;;;4992846;28;20217;-52
2022/06/18 10:14:55;;;;;;;378.50;305.70;;;;;;;;;;4993133;28;20173;-52
2022/06/18 10:17:31;;;;;;;371.13;304.95;;;;;;;;;;4991884;28;20177;-52
2022/06/18 10:20:02;;;;;;;352.13;285.60;;;;;;;;;;4993073;28;20221;-52
2022/06/18 10:22:31;;;;;;;350.73;287.15;;;;;;;;;;4992763;28;20242;-52
2022/06/18 10:25:19;;;;;;;351.13;278.85;;;;;;;;;;4992845;28;20581;-52
2022/06/18 10:27:51;;;;;;;332.77;275.08;;;;;;;;;;4992708;28;20221;-52
2022/06/18 10:30:22;;;;;;;355.48;282.75;;;;;;;;;;4992853;28;20434;-51
2022/06/18 10:33:15;;;;;;;336.05;287.05;;;;;;;;;;4992416;28;20189;-51
2022/06/18 10:35:41;;;;;;;361.25;276.13;;;;;;;;;;4992642;28;20176;-52
2022/06/18 10:38:18;;;;;;;357.33;281.70;;;;;;;;;;4993147;28;20592;-52
2022/06/18 10:41:07;;;;;;;360.73;281.25;;;;;;;;;;4992396;28;20221;-52
2022/06/18 10:43:42;;;;;;;351.35;288.50;;;;;;;;;;4992645;28;20721;-52
2022/06/18 10:46:10;;;;;;;349.02;273.23;;;;;;;;;;4974922;28;20217;-52
2022/06/18 10:48:36;;;;;;;358.95;292.02;;;;;;;;;;4992061;28;20214;-52
2022/06/18 10:51:03;;;;;;;377.23;309.33;;;;;;;;;;4992262;28;20209;-52
2022/06/18 10:53:45;;;;;;;330.25;274.55;;;;;;;;;;4992765;28;20174;-52
2022/06/18 10:56:16;;;;;;;374.77;300.50;;;;;;;;;;4992302;28;20197;-52
2022/06/18 10:58:49;;;;;;;348.17;287.00;;;;;;;;;;4992266;28;20264;-52
2022/06/18 11:01:15;;;;;;;353.80;283.52;;;;;;;;;;4992074;28;20236;-52
2022/06/18 11:03:52;;;;;;;350.35;279.20;;;;;;;;;;4992009;28;20213;-51
2022/06/18 11:06:18;;;;;;;369.42;321.02;;;;;;;;;;4992236;28;20267;-52
2022/06/18 11:08:55;;;;;;;363.70;320.55;;;;;;;;;;4991849;28;20220;-52
2022/06/18 11:11:23;;;;;;;364.90;322.38;;;;;;;;;;4992487;28;20241;-52
2022/06/18 11:13:50;;;;;;;358.92;319.30;;;;;;;;;;4991864;28;20712;-52
2022/06/18 11:16:19;;;;;;;372.17;306.20;;;;;;;;;;4991964;28;20233;-52
2022/06/18 11:18:47;;;;;;;363.52;323.63;;;;;;;;;;4991812;28;20717;-52
2022/06/18 11:21:25;;;;;;;360.08;307.35;;;;;;;;;;4991870;28;20222;-52
2022/06/18 11:23:55;;;;;;;357.92;289.42;;;;;;;;;;4991848;28;20622;-52
2022/06/18 11:26:23;;;;;;;351.17;295.45;;;;;;;;;;4991066;28;20451;-52
2022/06/18 11:28:50;;;;;;;352.55;287.00;;;;;;;;;;4990871;28;20325;-52
2022/06/18 11:31:36;;;;;;;350.92;289.42;;;;;;;;;;4990979;28;20456;-52
2022/06/18 11:34:07;;;;;;;351.63;308.35;;;;;;;;;;4991081;28;20525;-49
2022/06/18 11:36:45;;;;;;;375.45;312.55;;;;;;;;;;4990870;28;20217;-49
2022/06/18 11:39:26;;;;;;;364.48;300.23;;;;;;;;;;4991359;28;20295;-49
2022/06/18 11:41:53;;;;;;;380.20;308.27;;;;;;;;;;4991023;28;20198;-50
2022/06/18 11:44:28;;;;;;;363.40;299.05;;;;;;;;;;4991736;28;20180;-50
2022/06/18 11:47:00;;;;;;;375.70;304.63;;;;;;;;;;4996496;28;20232;-49
2022/06/18 11:49:39;;;;;;;372.38;324.10;;;;;;;;;;5010295;28;20217;-49
2022/06/18 11:52:20;;;;;;;369.60;307.17;;;;;;;;;;5010228;28;20262;-49
2022/06/18 11:54:52;;;;;;;379.23;318.88;;;;;;;;;;5010503;28;20209;-49
2022/06/18 11:57:25;;;;;;;374.75;323.90;;;;;;;;;;5010299;28;20243;-49
2022/06/18 12:00:14;;;;;;;360.58;317.08;;;;;;;;;;5010518;28;20263;-50
2022/06/18 12:02:58;;;;;;;372.98;319.00;;;;;;;;;;5009906;28;20203;-49
2022/06/18 12:05:24;;;;;;;375.88;322.85;;;;;;;;;;5010522;28;20633;-49
2022/06/18 12:07:53;;;;;;;352.88;312.20;;;;;;;;;;5010291;28;20217;-50
2022/06/18 12:10:21;;;;;;;381.52;324.55;;;;;;;;;;5010228;28;20220;-49
2022/06/18 12:12:52;;;;;;;396.77;329.35;;;;;;;;;;5007896;28;20220;-49
2022/06/18 12:15:24;;;;;;;411.88;344.42;;;;;;;;;;5003642;28;20701;-49
2022/06/18 12:18:05;;;;;;;363.27;325.13;;;;;;;;;;5007631;28;20347;-49
2022/06/18 12:20:44;;;;;;;367.45;327.90;;;;;;;;;;5010797;28;20189;-49
2022/06/18 12:23:21;;;;;;;375.98;331.30;;;;;;;;;;5009951;28;20231;-49
2022/06/18 12:25:50;;;;;;;372.95;330.88;;;;;;;;;;5010137;28;20648;-49
2022/06/18 12:28:25;;;;;;;385.30;342.65;;;;;;;;;;5009336;28;20762;-49
2022/06/18 12:30:50;;;;;;;385.58;344.17;;;;;;;;;;5010012;28;20272;-49
2022/06/18 12:33:26;;;;;;;376.75;334.60;;;;;;;;;;5009829;28;20360;-50
2022/06/18 12:35:52;;;;;;;392.15;349.83;;;;;;;;;;5009714;28;20160;-50
2022/06/18 12:38:28;;;;;;;401.30;357.85;;;;;;;;;;5010680;28;20283;-50
2022/06/18 12:41:00;;;;;;;386.90;345.15;;;;;;;;;;5013007;28;20220;-50
2022/06/18 12:43:29;;;;;;;394.48;352.23;;;;;;;;;;4995945;28;20299;-50
2022/06/18 12:46:06;;;;;;;389.00;348.38;;;;;;;;;;5013662;28;20816;-50
2022/06/18 12:48:34;;;;;;;376.15;338.13;;;;;;;;;;5013700;28;20299;-50
2022/06/18 12:51:19;;;;;;;393.27;351.83;;;;;;;;;;5014048;28;20692;-50
2022/06/18 12:53:51;;;;;;;397.30;356.30;;;;;;;;;;5013551;28;20169;-50
2022/06/18 12:56:40;;;;;;;405.27;363.17;;;;;;;;;;5014109;28;20166;-50
2022/06/18 12:59:13;;;;;;;399.10;358.38;;;;;;;;;;5013907;28;20569;-50
2022/06/18 13:01:56;;;;;;;412.83;370.83;;;;;;;;;;5013615;28;20220;-50
2022/06/18 13:04:26;;;;;;;424.65;382.50;;;;;;;;;;5013139;28;20693;-49
2022/06/18 13:07:03;;;;;;;422.33;379.83;;;;;;;;;;5013219;28;20723;-50
2022/06/18 13:09:48;;;;;;;424.25;382.20;;;;;;;;;;5013160;28;20247;-50
2022/06/18 13:12:19;;;;;;;428.20;384.98;;;;;;;;;;5013161;28;20287;-50
2022/06/18 13:14:58;;;;;;;419.65;377.60;;;;;;;;;;5013227;28;20235;-50
2022/06/18 13:17:28;;;;;;;423.88;381.33;;;;;;;;;;5013304;28;20165;-50
2022/06/18 13:20:09;;;;;;;414.55;372.98;;;;;;;;;;5013342;28;20221;-50
2022/06/18 13:22:35;;;;;;;421.58;380.20;;;;;;;;;;5012836;28;20304;-50
2022/06/18 13:30:47;;;;;;;429.95;388.08;;;;;;;;;;5012968;28;20882;-50
2022/06/18 13:33:16;;;;;;;436.42;392.73;;;;;;;;;;5012268;28;20220;-50
2022/06/18 13:35:45;;;;;;;421.33;380.20;;;;;;;;;;5012858;28;20173;-50
2022/06/18 13:38:23;;;;;;;429.58;388.27;;;;;;;;;;5012741;28;20549;-50
2022/06/18 13:41:00;;;;;;;417.98;376.35;;;;;;;;;;5012701;28;20229;-50
2022/06/18 13:43:31;;;;;;;404.88;364.45;;;;;;;;;;5012432;28;20596;-50
2022/06/18 13:46:02;;;;;;;421.27;378.40;;;;;;;;;;5012450;28;20700;-50
2022/06/18 13:48:40;;;;;;;424.95;382.48;;;;;;;;;;5012245;28;20217;-50
2022/06/18 13:51:06;;;;;;;417.27;375.10;;;;;;;;;;5012117;28;20212;-50
2022/06/18 13:53:34;;;;;;;420.50;378.58;;;;;;;;;;5012741;28;20173;-50
2022/06/18 13:56:01;;;;;;;421.83;378.98;;;;;;;;;;5012380;28;20212;-50
2022/06/18 13:58:27;;;;;;;437.05;395.50;;;;;;;;;;5012459;28;20220;-50
2022/06/18 14:01:11;;;;;;;477.67;433.65;;;;;;;;;;5012651;28;20303;-50
2022/06/18 14:03:49;;;;;;;424.30;382.38;;;;;;;;;;5012246;28;20271;-50
2022/06/18 14:06:17;;;;;;;421.17;379.17;;;;;;;;;;5012334;28;20291;-50
2022/06/18 14:08:51;;;;;;;424.48;381.55;;;;;;;;;;5011643;28;20300;-50
2022/06/18 14:11:31;;;;;;;411.73;371.63;;;;;;;;;;5012696;28;20680;-50
2022/06/18 14:13:57;;;;;;;425.77;384.03;;;;;;;;;;5012076;28;20299;-50
2022/06/18 14:16:37;;;;;;;443.70;400.70;;;;;;;;;;5011771;28;20241;-51
2022/06/18 14:19:12;;;;;;;441.75;399.13;;;;;;;;;;5011930;28;20228;-50
2022/06/18 14:21:38;;;;;;;459.40;415.90;;;;;;;;;;5011844;28;20252;-50